createdAt,value
2022-12-13T00:02:01.985Z,-3.13
2022-12-13T00:04:30.376Z,-3.11
2022-12-13T00:06:58.659Z,-3.13
2022-12-13T00:09:27.152Z,-3.19
2022-12-13T00:11:55.492Z,-3.18
2022-12-13T00:14:23.819Z,-3.12
2022-12-13T00:16:52.376Z,-3.09
2022-12-13T00:19:22.040Z,-3.08
2022-12-13T00:21:50.479Z,-3.07
2022-12-13T00:24:18.944Z,-3.04
2022-12-13T00:26:47.198Z,-3.07
2022-12-13T00:29:15.522Z,-3.05
2022-12-13T00:31:58.570Z,-3.05
2022-12-13T00:34:29.531Z,-3.01
2022-12-13T00:36:59.790Z,-2.97
2022-12-13T00:39:28.293Z,-2.95
2022-12-13T00:41:56.646Z,-2.93
2022-12-13T00:44:25.271Z,-2.98
2022-12-13T00:46:53.518Z,-3.01
2022-12-13T00:49:22.012Z,-3.05
2022-12-13T00:51:51.665Z,-3.10
2022-12-13T00:54:19.898Z,-3.17
2022-12-13T00:56:48.251Z,-3.25
2022-12-13T00:59:16.837Z,-3.31
2022-12-13T01:01:46.023Z,-3.38
2022-12-13T01:04:15.227Z,-3.45
2022-12-13T01:06:45.869Z,-3.52
2022-12-13T01:09:20.766Z,-3.58
2022-12-13T01:11:50.161Z,-3.60
2022-12-13T01:14:19.256Z,-3.62
2022-12-13T01:16:47.633Z,-3.62
2022-12-13T01:19:16.366Z,-3.66
2022-12-13T01:21:44.599Z,-3.68
2022-12-13T01:24:12.988Z,-3.72
2022-12-13T01:26:42.774Z,-3.75
2022-12-13T01:29:11.567Z,-3.79
2022-12-13T01:31:41.628Z,-3.87
2022-12-13T01:34:11.417Z,-3.88
2022-12-13T01:36:41.099Z,-3.92
2022-12-13T01:39:14.775Z,-3.93
2022-12-13T01:41:48.160Z,-3.96
2022-12-13T01:45:04.778Z,-4.03
2022-12-13T01:47:40.859Z,-4.05
2022-12-13T01:50:13.937Z,-4.09
2022-12-13T01:52:44.178Z,-4.06
2022-12-13T01:55:13.695Z,-4.06
2022-12-13T01:57:46.107Z,-4.06
2022-12-13T02:00:16.429Z,-4.06
2022-12-13T02:02:45.587Z,-4.12
2022-12-13T02:05:23.141Z,-4.16
2022-12-13T02:07:52.435Z,-4.22
2022-12-13T02:10:21.246Z,-4.25
2022-12-13T02:12:51.594Z,-4.26
2022-12-13T02:15:22.031Z,-4.27
2022-12-13T02:18:07.959Z,-4.23
2022-12-13T02:20:58.923Z,-4.24
2022-12-13T02:24:13.323Z,-4.23
2022-12-13T02:27:09.867Z,-4.24
2022-12-13T02:30:26.893Z,-4.26
2022-12-13T02:33:21.358Z,-4.28
2022-12-13T02:36:00.691Z,-4.34
2022-12-13T02:38:35.289Z,-4.34
2022-12-13T02:41:14.877Z,-4.34
2022-12-13T02:43:51.704Z,-4.34
2022-12-13T02:46:34.082Z,-4.34
2022-12-13T02:49:04.839Z,-4.33
2022-12-13T02:51:34.372Z,-4.35
2022-12-13T02:54:02.731Z,-4.35
2022-12-13T02:56:32.951Z,-4.37
2022-12-13T02:59:05.046Z,-4.37
2022-12-13T03:01:50.704Z,-4.41
2022-12-13T03:04:33.978Z,-4.42
2022-12-13T03:07:11.745Z,-4.44
2022-12-13T03:09:50.626Z,-4.45
2022-12-13T03:12:49.281Z,-4.46
2022-12-13T03:15:23.117Z,-4.47
2022-12-13T03:17:59.858Z,-4.45
2022-12-13T03:20:30.836Z,-4.44
2022-12-13T03:22:59.458Z,-4.44
2022-12-13T03:25:32.967Z,-4.45
2022-12-13T03:28:02.904Z,-4.44
2022-12-13T03:30:32.354Z,-4.41
2022-12-13T03:33:03.819Z,-4.41
2022-12-13T03:35:44.845Z,-4.40
2022-12-13T03:38:22.576Z,-4.42
2022-12-13T03:40:54.216Z,-4.44
2022-12-13T03:43:23.345Z,-4.45
2022-12-13T03:45:52.616Z,-4.48
2022-12-13T03:48:23.015Z,-4.52
2022-12-13T03:50:55.225Z,-4.50
2022-12-13T03:53:33.187Z,-4.49
2022-12-13T03:56:03.690Z,-4.53
2022-12-13T03:58:36.077Z,-4.54
2022-12-13T04:01:07.996Z,-4.55
2022-12-13T04:03:36.607Z,-4.55
2022-12-13T04:06:07.463Z,-4.52
2022-12-13T04:08:36.880Z,-4.51
2022-12-13T04:11:26.800Z,-4.50
2022-12-13T04:13:57.116Z,-4.52
2022-12-13T04:16:25.942Z,-4.57
2022-12-13T04:18:54.220Z,-4.54
2022-12-13T04:21:24.760Z,-4.52
2022-12-13T04:23:53.024Z,-4.49
2022-12-13T04:26:21.436Z,-4.48
2022-12-13T04:28:54.516Z,-4.50
2022-12-13T04:31:23.854Z,-4.55
2022-12-13T04:33:52.307Z,-4.54
2022-12-13T04:36:31.838Z,-4.55
2022-12-13T04:39:03.157Z,-4.59
2022-12-13T04:41:36.828Z,-4.59
2022-12-13T04:44:06.847Z,-4.60
2022-12-13T04:46:55.088Z,-4.63
2022-12-13T04:49:29.766Z,-4.64
2022-12-13T04:52:01.163Z,-4.64
2022-12-13T04:54:35.698Z,-4.64
2022-12-13T04:57:07.659Z,-4.65
2022-12-13T04:59:36.111Z,-4.66
2022-12-13T05:02:05.922Z,-4.66
2022-12-13T05:04:34.531Z,-4.67
2022-12-13T05:07:02.988Z,-4.65
2022-12-13T05:09:32.795Z,-4.64
2022-12-13T05:12:02.051Z,-4.63
2022-12-13T05:14:31.147Z,-4.61
2022-12-13T05:16:59.885Z,-4.65
2022-12-13T05:19:30.454Z,-4.61
2022-12-13T05:22:00.995Z,-4.58
2022-12-13T05:24:32.435Z,-4.56
2022-12-13T05:27:01.201Z,-4.57
2022-12-13T05:29:29.851Z,-4.57
2022-12-13T05:31:58.346Z,-4.59
2022-12-13T05:34:26.853Z,-4.59
2022-12-13T05:36:55.147Z,-4.60
2022-12-13T05:39:27.972Z,-4.61
2022-12-13T05:42:01.787Z,-4.62
2022-12-13T05:44:32.233Z,-4.64
2022-12-13T05:47:01.953Z,-4.62
2022-12-13T05:49:30.953Z,-4.63
2022-12-13T05:51:59.355Z,-4.62
2022-12-13T05:54:27.739Z,-4.63
2022-12-13T05:56:56.681Z,-4.65
2022-12-13T05:59:26.408Z,-4.65
2022-12-13T06:01:54.852Z,-4.66
2022-12-13T06:04:23.604Z,-4.66
2022-12-13T06:06:52.633Z,-4.65
2022-12-13T06:09:21.369Z,-4.65
2022-12-13T06:11:50.310Z,-4.65
2022-12-13T06:14:21.559Z,-4.64
2022-12-13T06:16:53.189Z,-4.63
2022-12-13T06:19:21.989Z,-4.61
2022-12-13T06:21:50.349Z,-4.61
2022-12-13T06:24:21.121Z,-4.59
2022-12-13T06:26:51.219Z,-4.59
2022-12-13T06:29:23.985Z,-4.59
2022-12-13T06:32:01.834Z,-4.59
2022-12-13T06:34:33.804Z,-4.63
2022-12-13T06:37:02.410Z,-4.61
2022-12-13T06:39:33.183Z,-4.60
2022-12-13T06:42:03.341Z,-4.56
2022-12-13T06:44:31.843Z,-4.53
2022-12-13T06:47:10.280Z,-4.50
2022-12-13T06:49:43.473Z,-4.49
2022-12-13T06:52:13.787Z,-4.48
2022-12-13T06:54:42.559Z,-4.47
2022-12-13T06:57:11.159Z,-4.43
2022-12-13T06:59:39.727Z,-4.41
2022-12-13T07:02:15.503Z,-4.41
2022-12-13T07:04:56.179Z,-4.41
2022-12-13T07:07:25.958Z,-4.44
2022-12-13T07:09:54.722Z,-4.47
2022-12-13T07:12:23.446Z,-4.51
2022-12-13T07:14:52.232Z,-4.55
2022-12-13T07:17:32.660Z,-4.54
2022-12-13T07:20:07.971Z,-4.53
2022-12-13T07:22:44.928Z,-4.54
2022-12-13T07:25:27.947Z,-4.58
2022-12-13T07:28:01.401Z,-4.61
2022-12-13T07:30:32.585Z,-4.61
2022-12-13T07:33:03.104Z,-4.63
2022-12-13T07:35:32.441Z,-4.64
2022-12-13T07:38:06.070Z,-4.64
2022-12-13T07:40:35.222Z,-4.64
2022-12-13T07:43:03.581Z,-4.65
2022-12-13T07:45:31.841Z,-4.62
2022-12-13T07:48:05.362Z,-4.63
2022-12-13T07:50:37.030Z,-4.65
2022-12-13T07:53:07.648Z,-4.64
2022-12-13T07:55:37.468Z,-4.66
2022-12-13T07:58:07.424Z,-4.63
2022-12-13T08:00:35.763Z,-4.58
2022-12-13T08:03:06.653Z,-4.57
2022-12-13T08:05:38.612Z,-4.55
2022-12-13T08:08:10.457Z,-4.54
2022-12-13T08:10:39.609Z,-4.49
2022-12-13T08:13:08.038Z,-4.47
2022-12-13T08:15:36.330Z,-4.46
2022-12-13T08:18:06.507Z,-4.44
2022-12-13T08:20:34.774Z,-4.42
2022-12-13T08:23:03.188Z,-4.40
2022-12-13T08:25:32.097Z,-4.37
2022-12-13T08:28:02.054Z,-4.35
2022-12-13T08:30:32.515Z,-4.32
2022-12-13T08:33:04.722Z,-4.28
2022-12-13T08:35:35.377Z,-4.24
2022-12-13T08:38:04.419Z,-4.20
2022-12-13T08:40:32.812Z,-4.16
2022-12-13T08:43:01.053Z,-4.13
2022-12-13T08:45:29.500Z,-4.07
2022-12-13T08:48:00.648Z,-4.01
2022-12-13T08:50:30.551Z,-3.95
2022-12-13T08:53:00.281Z,-3.90
2022-12-13T08:55:31.319Z,-3.82
2022-12-13T08:58:06.997Z,-3.75
2022-12-13T09:00:35.414Z,-3.68
2022-12-13T09:03:05.021Z,-3.60
2022-12-13T09:05:35.211Z,-3.52
2022-12-13T09:08:25.049Z,-3.44
2022-12-13T09:11:11.217Z,-3.36
2022-12-13T09:13:50.551Z,-3.28
2022-12-13T09:16:24.520Z,-3.22
2022-12-13T09:18:55.216Z,-3.16
2022-12-13T09:21:31.566Z,-3.10
2022-12-13T09:24:02.450Z,-3.00
2022-12-13T09:26:38.262Z,-2.90
2022-12-13T09:29:11.076Z,-2.70
2022-12-13T09:31:41.129Z,-2.52
2022-12-13T09:34:10.146Z,-2.42
2022-12-13T09:36:38.709Z,-2.40
2022-12-13T09:39:08.434Z,-2.43
2022-12-13T09:41:41.366Z,-2.46
2022-12-13T09:44:32.731Z,-2.47
2022-12-13T09:47:13.327Z,-2.48
2022-12-13T09:49:51.674Z,-2.44
2022-12-13T09:52:24.263Z,-2.43
2022-12-13T09:54:57.189Z,-2.41
2022-12-13T09:57:31.267Z,-2.35
2022-12-13T10:00:02.465Z,-2.33
2022-12-13T10:02:33.700Z,-2.28
2022-12-13T10:05:22.281Z,-2.25
2022-12-13T10:07:54.346Z,-2.20
2022-12-13T10:10:24.351Z,-2.15
2022-12-13T10:13:01.961Z,-2.11
2022-12-13T10:15:32.969Z,-2.06
2022-12-13T10:18:04.247Z,-2.00
2022-12-13T10:20:34.505Z,-1.97
2022-12-13T10:23:31.464Z,-1.92
2022-12-13T10:26:02.897Z,-1.87
2022-12-13T10:28:34.723Z,-1.83
2022-12-13T10:31:03.840Z,-1.77
2022-12-13T10:33:35.073Z,-1.73
2022-12-13T10:36:16.481Z,-1.71
2022-12-13T10:38:47.352Z,-1.68
2022-12-13T10:41:36.710Z,-1.65
2022-12-13T10:44:25.939Z,-1.63
2022-12-13T10:47:05.797Z,-1.59
2022-12-13T10:49:42.447Z,-1.59
2022-12-13T10:52:30.640Z,-1.58
2022-12-13T10:55:04.596Z,-1.58
2022-12-13T10:57:54.580Z,-1.58
2022-12-13T11:00:37.747Z,-1.59
2022-12-13T11:03:07.221Z,-1.55
2022-12-13T11:05:37.646Z,-1.53
2022-12-13T11:08:19.333Z,-1.49
2022-12-13T11:10:57.708Z,-1.47
2022-12-13T11:13:36.899Z,-1.45
2022-12-13T11:16:13.041Z,-1.41
2022-12-13T11:18:41.588Z,-1.38
2022-12-13T11:21:11.229Z,-1.35
2022-12-13T11:23:44.949Z,-1.28
2022-12-13T11:26:24.262Z,-1.22
2022-12-13T11:29:16.188Z,-1.20
2022-12-13T11:31:55.436Z,-1.15
2022-12-13T11:34:35.256Z,-1.12
2022-12-13T11:37:19.222Z,-1.08
2022-12-13T11:39:51.781Z,-1.02
2022-12-13T11:42:27.263Z,-0.96
2022-12-13T11:45:07.976Z,-0.87
2022-12-13T11:47:44.944Z,-0.80
2022-12-13T11:50:32.678Z,-0.73
2022-12-13T11:53:24.371Z,-0.67
2022-12-13T11:55:58.793Z,-0.58
2022-12-13T12:01:32.406Z,-0.45
2022-12-13T12:04:18.178Z,-0.37
2022-12-13T12:06:53.143Z,-0.30
2022-12-13T12:09:25.421Z,-0.24
2022-12-13T12:12:02.198Z,-0.17
2022-12-13T12:14:42.196Z,-0.11
2022-12-13T12:17:15.773Z,-0.06
2022-12-13T12:19:47.923Z,-0.03
2022-12-13T12:22:32.271Z,0.05
2022-12-13T12:25:22.753Z,0.08
2022-12-13T12:28:00.414Z,0.13
2022-12-13T12:30:41.419Z,0.17
2022-12-13T12:33:25.093Z,0.24
2022-12-13T12:36:15.437Z,0.28
2022-12-13T12:39:13.297Z,0.33
2022-12-13T12:42:00.263Z,0.37
2022-12-13T12:44:40.864Z,0.42
2022-12-13T12:47:56.476Z,0.46
2022-12-13T12:50:43.051Z,0.48
2022-12-13T12:53:31.709Z,0.49
2022-12-13T12:56:18.285Z,0.50
2022-12-13T12:58:53.271Z,0.52
2022-12-13T13:01:43.341Z,0.58
2022-12-13T13:04:22.627Z,1.02
2022-12-13T13:07:01.921Z,1.61
2022-12-13T13:09:32.489Z,2.19
2022-12-13T13:12:29.680Z,2.71
2022-12-13T13:14:53.594Z,3.21
2022-12-13T13:17:47.745Z,3.74
2022-12-13T13:20:26.941Z,4.12
2022-12-13T13:23:38.871Z,4.21
2022-12-13T13:26:16.416Z,3.92
2022-12-13T13:28:43.568Z,3.24
2022-12-13T13:31:12.834Z,2.70
2022-12-13T13:33:48.118Z,2.28
2022-12-13T13:36:47.940Z,1.92
2022-12-13T13:39:38.811Z,1.70
2022-12-13T13:42:18.548Z,1.55
2022-12-13T13:45:23.654Z,1.37
2022-12-13T13:48:20.833Z,1.24
2022-12-13T13:51:31.425Z,1.26
2022-12-13T13:54:37.221Z,1.52
2022-12-13T14:01:12.402Z,1.52
2022-12-13T14:04:38.115Z,1.46
2022-12-13T14:07:52.364Z,1.22
2022-12-13T14:10:36.591Z,1.03
2022-12-13T14:13:59.127Z,0.86
2022-12-13T14:17:19.122Z,0.72
2022-12-13T14:20:32.406Z,0.61
2022-12-13T14:23:08.134Z,0.67
2022-12-13T14:26:18.348Z,0.66
2022-12-13T14:28:51.060Z,0.53
2022-12-13T14:31:23.651Z,0.44
2022-12-13T14:33:54.755Z,0.33
2022-12-13T14:36:32.267Z,0.24
2022-12-13T14:39:02.981Z,0.17
2022-12-13T14:41:32.698Z,0.09
2022-12-13T14:44:16.189Z,0.01
2022-12-13T14:46:57.218Z,-0.09
2022-12-13T14:49:28.554Z,-0.17
2022-12-13T14:52:01.640Z,-0.29
2022-12-13T14:54:39.756Z,-0.36
2022-12-13T14:57:19.180Z,-0.45
2022-12-13T14:59:50.394Z,-0.47
2022-12-13T15:02:30.881Z,-0.51
2022-12-13T15:05:02.044Z,-0.65
2022-12-13T15:07:36.274Z,-0.73
2022-12-13T15:10:19.133Z,-0.83
2022-12-13T15:12:49.859Z,-0.95
2022-12-13T15:15:26.348Z,-1.05
2022-12-13T15:18:15.108Z,-1.10
2022-12-13T15:20:43.509Z,-1.19
2022-12-13T15:23:20.597Z,-1.27
2022-12-13T15:25:56.944Z,-1.33
2022-12-13T15:28:29.447Z,-1.36
2022-12-13T15:31:00.343Z,-1.43
2022-12-13T15:33:35.258Z,-1.47
2022-12-13T15:36:11.335Z,-1.52
2022-12-13T15:38:43.190Z,-1.60
2022-12-13T15:41:19.301Z,-1.65
2022-12-13T15:43:52.553Z,-1.74
2022-12-13T15:46:27.131Z,-1.78
2022-12-13T15:48:57.694Z,-1.81
2022-12-13T15:51:29.243Z,-1.88
2022-12-13T15:54:21.194Z,-1.93
2022-12-13T15:57:13.634Z,-1.98
2022-12-13T15:59:46.054Z,-2.06
2022-12-13T16:02:20.133Z,-2.12
2022-12-13T16:04:49.042Z,-2.17
2022-12-13T16:07:26.219Z,-2.18
2022-12-13T16:09:55.750Z,-2.23
2022-12-13T16:12:29.770Z,-2.25
2022-12-13T16:15:20.559Z,-2.34
2022-12-13T16:18:07.888Z,-2.40
2022-12-13T16:20:36.642Z,-2.43
2022-12-13T16:23:08.869Z,-2.46
2022-12-13T16:25:37.900Z,-2.50
2022-12-13T16:28:06.583Z,-2.55
2022-12-13T16:31:04.095Z,-2.59
2022-12-13T16:33:32.897Z,-2.63
2022-12-13T16:36:01.351Z,-2.66
2022-12-13T16:38:30.105Z,-2.70
2022-12-13T16:41:09.304Z,-2.71
2022-12-13T16:43:45.737Z,-2.68
2022-12-13T16:47:15.220Z,-2.66
2022-12-13T16:49:18.824Z,-2.66
2022-12-13T16:51:48.834Z,-2.70
2022-12-13T16:54:19.998Z,-2.66
2022-12-13T16:56:48.937Z,-2.64
2022-12-13T16:59:20.744Z,-2.64
2022-12-13T17:01:51.505Z,-2.67
2022-12-13T17:04:22.923Z,-2.74
2022-12-13T17:06:54.488Z,-2.79
2022-12-13T17:09:25.342Z,-2.82
2022-12-13T17:11:53.739Z,-2.83
2022-12-13T17:14:23.301Z,-2.86
2022-12-13T17:16:53.239Z,-2.86
2022-12-13T17:19:22.312Z,-2.88
2022-12-13T17:21:50.633Z,-2.91
2022-12-13T17:24:18.974Z,-2.96
2022-12-13T17:26:54.549Z,-2.98
2022-12-13T17:29:24.697Z,-2.97
2022-12-13T17:31:54.587Z,-2.99
2022-12-13T17:34:22.885Z,-3.03
2022-12-13T17:36:51.206Z,-3.07
2022-12-13T17:39:19.992Z,-3.09
2022-12-13T17:41:54.875Z,-3.12
2022-12-13T17:44:25.161Z,-3.15
2022-12-13T17:46:55.819Z,-3.13
2022-12-13T17:49:25.553Z,-3.13
2022-12-13T17:51:54.795Z,-3.13
2022-12-13T17:54:24.706Z,-3.13
2022-12-13T17:56:53.612Z,-3.13
2022-12-13T17:59:22.359Z,-3.16
2022-12-13T18:01:50.926Z,-3.16
2022-12-13T18:04:21.337Z,-3.15
2022-12-13T18:06:51.524Z,-3.13
2022-12-13T18:09:20.280Z,-3.13
2022-12-13T18:11:48.672Z,-3.10
2022-12-13T18:14:17.388Z,-3.09
2022-12-13T18:16:45.815Z,-3.06
2022-12-13T18:19:15.336Z,-3.05
2022-12-13T18:21:45.039Z,-3.01
2022-12-13T18:24:13.632Z,-3.00
2022-12-13T18:26:42.563Z,-2.98
2022-12-13T18:29:11.000Z,-3.02
2022-12-13T18:31:39.802Z,-2.97
2022-12-13T18:34:09.329Z,-2.98
2022-12-13T18:36:39.666Z,-2.95
2022-12-13T18:39:09.467Z,-2.95
2022-12-13T18:41:37.936Z,-2.98
2022-12-13T18:44:09.088Z,-2.98
2022-12-13T18:46:44.724Z,-2.97
2022-12-13T18:49:14.466Z,-2.96
2022-12-13T18:51:42.790Z,-2.93
2022-12-13T18:54:12.477Z,-2.94
2022-12-13T18:56:41.055Z,-2.94
2022-12-13T18:59:11.001Z,-2.97
2022-12-13T19:01:39.413Z,-2.99
2022-12-13T19:04:07.733Z,-2.99
2022-12-13T19:06:36.037Z,-3.02
2022-12-13T19:09:04.546Z,-3.01
2022-12-13T19:11:34.334Z,-2.96
2022-12-13T19:14:02.601Z,-2.96
2022-12-13T19:16:31.087Z,-3.00
2022-12-13T19:18:59.693Z,-3.02
2022-12-13T19:21:28.510Z,-3.05
2022-12-13T19:23:58.815Z,-3.09
2022-12-13T19:26:29.311Z,-3.11
2022-12-13T19:29:00.181Z,-3.14
2022-12-13T19:31:32.074Z,-3.15
2022-12-13T19:34:01.868Z,-3.18
2022-12-13T19:36:31.049Z,-3.20
2022-12-13T19:38:59.800Z,-3.22
2022-12-13T19:41:28.376Z,-3.23
2022-12-13T19:43:58.185Z,-3.25
2022-12-13T19:46:27.223Z,-3.28
2022-12-13T19:48:55.569Z,-3.26
2022-12-13T19:51:24.059Z,-3.30
2022-12-13T19:53:52.773Z,-3.32
2022-12-13T19:56:23.240Z,-3.34
2022-12-13T19:58:52.307Z,-3.37
2022-12-13T20:01:22.349Z,-3.37
2022-12-13T20:03:51.456Z,-3.38
2022-12-13T20:06:22.526Z,-3.37
2022-12-13T20:08:51.723Z,-3.38
2022-12-13T20:11:23.015Z,-3.42
2022-12-13T20:13:54.743Z,-3.44
2022-12-13T20:16:26.860Z,-3.43
2022-12-13T20:18:56.796Z,-3.45
2022-12-13T20:21:25.862Z,-3.47
2022-12-13T20:23:54.417Z,-3.47
2022-12-13T20:26:25.613Z,-3.47
2022-12-13T20:28:54.461Z,-3.46
2022-12-13T20:31:27.241Z,-3.46
2022-12-13T20:33:57.038Z,-3.47
2022-12-13T20:36:28.678Z,-3.43
2022-12-13T20:38:59.706Z,-3.44
2022-12-13T20:41:31.000Z,-3.44
2022-12-13T20:44:01.673Z,-3.44
2022-12-13T20:46:32.043Z,-3.43
2022-12-13T20:49:03.216Z,-3.39
2022-12-13T20:51:33.891Z,-3.38
2022-12-13T20:54:02.481Z,-3.35
2022-12-13T20:56:35.046Z,-3.34
2022-12-13T20:59:04.381Z,-3.33
2022-12-13T21:01:37.838Z,-3.30
2022-12-13T21:04:08.840Z,-3.29
2022-12-13T21:06:40.675Z,-3.28
2022-12-13T21:09:10.908Z,-3.28
2022-12-13T21:11:41.576Z,-3.27
2022-12-13T21:14:20.860Z,-3.25
2022-12-13T21:16:54.342Z,-3.24
2022-12-13T21:19:25.666Z,-3.23
2022-12-13T21:21:55.225Z,-3.21
2022-12-13T21:24:26.799Z,-3.20
2022-12-13T21:26:56.405Z,-3.23
2022-12-13T21:29:25.344Z,-3.22
2022-12-13T21:31:55.417Z,-3.21
2022-12-13T21:34:24.477Z,-3.22
2022-12-13T21:36:54.621Z,-3.22
2022-12-13T21:39:28.108Z,-3.21
2022-12-13T21:41:56.879Z,-3.21
2022-12-13T21:44:25.381Z,-3.19
2022-12-13T21:47:12.265Z,-3.20
2022-12-13T21:49:41.086Z,-3.20
2022-12-13T21:52:09.422Z,-2.99
2022-12-13T21:54:37.986Z,-3.05
2022-12-13T21:57:23.579Z,-3.09
2022-12-13T21:59:51.896Z,-3.13
2022-12-13T22:02:21.621Z,-3.16
2022-12-13T22:04:52.429Z,-3.19
2022-12-13T22:07:23.897Z,-3.19
2022-12-13T22:09:52.542Z,-3.19
2022-12-13T22:12:23.998Z,-3.21
2022-12-13T22:14:56.391Z,-3.21
2022-12-13T22:17:35.118Z,-3.18
2022-12-13T22:20:05.917Z,-3.18
2022-12-13T22:22:34.504Z,-3.16
2022-12-13T22:25:02.800Z,-3.13
2022-12-13T22:27:31.106Z,-3.10
2022-12-13T22:29:59.661Z,-3.07
2022-12-13T22:32:32.357Z,-3.04
2022-12-13T22:35:00.996Z,-3.05
2022-12-13T22:37:30.212Z,-3.03
2022-12-13T22:39:58.624Z,-2.98
2022-12-13T22:42:27.332Z,-2.95
2022-12-13T22:44:56.303Z,-2.92
2022-12-13T22:47:24.658Z,-2.92
2022-12-13T22:49:54.295Z,-2.90
2022-12-13T22:52:22.862Z,-2.87
2022-12-13T22:54:51.146Z,-2.87
2022-12-13T22:57:19.397Z,-2.86
2022-12-13T22:59:47.648Z,-2.85
2022-12-13T23:02:16.796Z,-2.86
2022-12-13T23:04:45.179Z,-2.88
2022-12-13T23:07:15.745Z,-2.86
2022-12-13T23:09:44.238Z,-2.86
2022-12-13T23:12:31.013Z,-2.85
2022-12-13T23:14:59.238Z,-2.90
2022-12-13T23:17:27.574Z,-2.90
2022-12-13T23:19:55.864Z,-2.93
2022-12-13T23:22:27.326Z,-2.92
2022-12-13T23:24:55.629Z,-2.93
2022-12-13T23:27:25.627Z,-2.94
2022-12-13T23:29:53.871Z,-2.92
2022-12-13T23:32:22.212Z,-2.93
2022-12-13T23:34:50.537Z,-2.94
2022-12-13T23:37:18.800Z,-2.95
2022-12-13T23:39:48.501Z,-2.96
2022-12-13T23:42:16.827Z,-2.98
2022-12-13T23:44:45.059Z,-2.98
2022-12-13T23:47:13.468Z,-2.98
2022-12-13T23:49:42.586Z,-2.97
2022-12-13T23:52:10.788Z,-2.98
2022-12-13T23:54:39.015Z,-2.99
2022-12-13T23:57:08.654Z,-3.03
2022-12-13T23:59:36.953Z,-3.02
